Time;durP1;ratioP1;P1;durP2;ratioP2;P2;SDS_P1;SDS_P2;PMS_P1;PMS_P2;Temp;Humidity;BMP_temperature;BMP_pressure;BME280_temperature;BME280_humidity;BME280_pressure;Samples;Min_cycle;Max_cycle;Signal;HPM_P1;HPM_P2
2022/06/24 00:11:30;;;;;;;3.57;1.80;;;20.00;99.90;;;;;;5013293;28;20682;-94
2022/06/24 00:14:15;;;;;;;3.53;1.20;;;19.90;99.90;;;;;;5008019;28;20747;-95
2022/06/24 00:16:57;;;;;;;2.73;1.70;;;20.00;99.90;;;;;;5012051;28;20752;-96
2022/06/24 00:19:29;;;;;;;2.70;1.50;;;19.90;99.90;;;;;;4998894;28;20680;-96
2022/06/24 00:22:05;;;;;;;2.90;1.27;;;19.50;99.90;;;;;;5000057;28;21183;-96
2022/06/24 00:24:33;;;;;;;2.40;1.83;;;19.50;99.90;;;;;;4994634;28;21189;-96
2022/06/24 00:27:02;;;;;;;1.30;1.20;;;19.70;99.90;;;;;;4997446;28;20616;-96
2022/06/24 00:29:33;;;;;;;4.03;1.40;;;19.90;99.90;;;;;;4992940;28;20648;-95
2022/06/24 00:32:07;;;;;;;3.70;1.80;;;19.90;99.90;;;;;;5000289;28;20670;-94
2022/06/24 00:34:35;;;;;;;5.43;2.03;;;19.80;99.90;;;;;;4995238;28;20587;-96
2022/06/24 00:37:28;;;;;;;4.53;2.00;;;19.60;99.90;;;;;;5006858;28;20627;-94
2022/06/24 00:39:58;;;;;;;4.60;2.10;;;19.40;99.90;;;;;;5002105;28;20655;-95
2022/06/24 00:42:38;;;;;;;6.03;2.20;;;19.40;99.90;;;;;;5004299;28;20652;-96
2022/06/24 00:45:19;;;;;;;3.20;1.57;;;19.40;99.90;;;;;;5005794;28;20625;-96
2022/06/24 00:47:48;;;;;;;5.83;2.10;;;19.40;99.90;;;;;;5005881;28;21163;-96
2022/06/24 00:50:21;;;;;;;7.73;1.87;;;19.40;99.90;;;;;;5010129;28;20716;-96
2022/06/24 01:08:30;;;;;;;3.03;2.17;;;19.40;99.90;;;;;;5048565;26;20639;-96
2022/06/24 01:10:57;;;;;;;5.60;2.27;;;19.40;99.90;;;;;;5048264;28;20630;-96
2022/06/24 01:16:11;;;;;;;3.60;2.13;;;18.90;99.90;;;;;;5006393;28;20707;-96
2022/06/24 01:18:42;;;;;;;3.07;2.10;;;19.40;99.90;;;;;;5005360;28;20617;-96
2022/06/24 01:34:42;;;;;;;3.80;2.40;;;19.20;99.90;;;;;;5055728;28;20677;-96
2022/06/24 01:37:09;;;;;;;4.77;2.20;;;19.50;99.90;;;;;;5054644;28;20645;-96
2022/06/24 01:39:36;;;;;;;4.80;2.00;;;19.60;99.90;;;;;;5037209;28;20602;-96
2022/06/24 01:42:04;;;;;;;6.20;2.23;;;20.10;99.90;;;;;;5071880;28;20628;-96
2022/06/24 01:44:33;;;;;;;3.70;2.23;;;20.10;99.90;;;;;;5038498;28;20612;-96
2022/06/24 01:47:01;;;;;;;3.63;1.57;;;19.90;99.90;;;;;;5194480;23;20671;-95
2022/06/24 01:49:28;;;;;;;2.50;1.60;;;19.50;99.90;;;;;;5051828;28;20706;-95
2022/06/24 01:52:37;;;;;;;8.10;2.30;;;19.80;99.90;;;;;;5057901;28;20611;-96
2022/06/24 01:55:07;;;;;;;2.43;1.73;;;19.70;99.90;;;;;;5055188;28;20634;-96
2022/06/24 02:00:26;;;;;;;4.60;2.20;;;20.20;99.90;;;;;;4996970;28;20676;-96
2022/06/24 02:02:54;;;;;;;1.63;1.50;;;19.80;99.90;;;;;;4993770;28;20637;-96
2022/06/24 02:14:37;;;;;;;3.07;1.90;;;20.20;99.90;;;;;;4993276;28;20668;-96
2022/06/24 02:17:13;;;;;;;3.43;1.73;;;20.30;99.90;;;;;;4994074;28;20589;-96
2022/06/24 02:19:49;;;;;;;4.87;2.27;;;20.60;99.90;;;;;;4993648;28;20656;-96
2022/06/24 02:22:42;;;;;;;3.67;1.90;;;20.60;99.90;;;;;;4994599;28;20660;-96
2022/06/24 02:26:08;;;;;;;3.60;2.10;;;20.40;99.90;;;;;;4993996;28;20687;-96
2022/06/24 02:28:49;;;;;;;3.03;2.00;;;20.10;99.90;;;;;;4991243;28;20629;-96
2022/06/24 02:31:23;;;;;;;3.43;1.70;;;19.50;99.90;;;;;;4985506;28;20652;-96
2022/06/24 02:33:51;;;;;;;4.50;2.30;;;19.30;99.90;;;;;;4996955;28;20762;-96
2022/06/24 02:36:19;;;;;;;3.97;2.03;;;19.20;99.90;;;;;;4997806;28;20630;-96
2022/06/24 02:41:35;;;;;;;3.50;1.87;;;19.30;99.90;;;;;;4990920;23;20678;-95
2022/06/24 02:44:06;;;;;;;5.70;1.60;;;19.20;99.90;;;;;;4968514;28;20632;-96
2022/06/24 02:46:34;;;;;;;5.67;1.87;;;19.20;99.90;;;;;;4970940;28;20623;-96
2022/06/24 02:49:01;;;;;;;5.27;2.40;;;19.80;99.90;;;;;;4960553;28;20741;-96
2022/06/24 02:51:28;;;;;;;3.50;1.80;;;19.80;99.90;;;;;;4934944;29;20690;-96
2022/06/24 02:53:56;;;;;;;3.60;1.90;;;19.90;99.90;;;;;;4938880;29;20722;-95
2022/06/24 02:56:24;;;;;;;2.10;1.70;;;19.60;99.90;;;;;;4938871;29;20637;-96
2022/06/24 02:58:51;;;;;;;8.67;2.70;;;19.60;99.90;;;;;;4935517;29;20691;-95
2022/06/24 03:01:20;;;;;;;3.33;2.83;;;19.40;99.90;;;;;;4938768;28;20631;-96
2022/06/24 03:03:47;;;;;;;6.03;2.80;;;19.10;99.90;;;;;;4938552;28;20623;-96
2022/06/24 03:06:14;;;;;;;3.77;2.33;;;19.10;99.90;;;;;;4942310;28;20673;-96
2022/06/24 03:08:41;;;;;;;4.40;2.47;;;19.00;99.90;;;;;;4944414;29;20639;-96
2022/06/24 03:11:09;;;;;;;3.00;1.87;;;18.90;99.90;;;;;;4938627;28;20666;-96
2022/06/24 03:13:52;;;;;;;5.10;2.77;;;19.00;99.90;;;;;;4937489;28;20963;-96
2022/06/24 03:16:20;;;;;;;5.93;2.80;;;19.30;99.90;;;;;;4949722;29;20641;-94
2022/06/24 03:18:48;;;;;;;2.77;2.50;;;19.10;99.90;;;;;;4946106;28;20662;-94
2022/06/24 03:21:15;;;;;;;4.30;2.37;;;19.10;99.90;;;;;;4935863;29;20643;-95
2022/06/24 03:23:42;;;;;;;4.00;2.40;;;19.10;99.90;;;;;;4945388;29;20635;-95
2022/06/24 03:26:09;;;;;;;3.20;2.10;;;19.10;99.90;;;;;;4939866;28;20627;-96
2022/06/24 03:28:36;;;;;;;2.70;2.10;;;19.20;99.90;;;;;;4948425;29;20599;-96
2022/06/24 03:31:03;;;;;;;3.60;2.00;;;19.80;99.90;;;;;;4961678;28;20627;-96
2022/06/24 03:33:31;;;;;;;4.73;2.90;;;20.40;99.90;;;;;;4948953;28;20651;-96
2022/06/24 03:35:58;;;;;;;5.93;2.60;;;20.20;99.90;;;;;;4933299;29;20646;-96
2022/06/24 03:38:26;;;;;;;3.70;2.33;;;19.90;99.90;;;;;;4944172;29;20638;-96
2022/06/24 03:40:53;;;;;;;3.00;1.33;;;19.60;99.90;;;;;;4946003;28;20678;-96
2022/06/24 03:43:20;;;;;;;1.63;1.40;;;19.60;99.90;;;;;;4936118;28;20642;-96
2022/06/24 03:45:47;;;;;;;3.67;2.00;;;19.80;99.90;;;;;;4936447;29;20707;-95
2022/06/24 03:48:14;;;;;;;5.00;2.37;;;19.80;99.90;;;;;;4936551;28;20726;-95
2022/06/24 03:50:45;;;;;;;4.80;2.17;;;19.40;99.90;;;;;;4936553;28;20762;-96
2022/06/24 03:53:13;;;;;;;2.93;1.80;;;19.50;99.90;;;;;;4936120;29;20662;-96
2022/06/24 03:55:40;;;;;;;1.70;1.47;;;19.60;99.90;;;;;;4934348;28;20999;-96
2022/06/24 03:58:12;;;;;;;10.20;2.33;;;19.60;99.90;;;;;;4953314;28;20648;-96
2022/06/24 04:00:39;;;;;;;6.13;2.30;;;19.80;99.90;;;;;;4966999;28;20673;-96
2022/06/24 04:03:08;;;;;;;3.43;1.80;;;19.80;99.90;;;;;;4947089;29;20639;-96
2022/06/24 04:05:38;;;;;;;10.63;2.73;;;19.80;99.90;;;;;;4948820;29;20739;-96
2022/06/24 04:08:23;;;;;;;5.33;2.40;;;19.60;99.90;;;;;;4959958;29;20643;-96
2022/06/24 04:10:53;;;;;;;3.47;1.90;;;19.60;99.90;;;;;;4944001;29;20714;-96
2022/06/24 04:13:19;;;;;;;3.83;1.80;;;19.40;99.90;;;;;;4942082;29;20750;-95
2022/06/24 04:15:49;;;;;;;2.90;2.03;;;19.50;99.90;;;;;;4936015;28;20675;-95
2022/06/24 04:18:17;;;;;;;6.53;2.67;;;19.50;99.90;;;;;;4942443;29;20642;-95
2022/06/24 04:20:44;;;;;;;2.83;1.73;;;19.40;99.90;;;;;;4939824;29;20698;-96
2022/06/24 04:23:11;;;;;;;6.67;2.13;;;19.50;99.90;;;;;;4943763;29;21169;-96
2022/06/24 04:25:39;;;;;;;7.30;2.50;;;19.60;99.90;;;;;;4946844;29;21359;-95
2022/06/24 04:28:07;;;;;;;5.17;2.20;;;19.60;99.90;;;;;;4938950;29;20701;-96
2022/06/24 04:30:34;;;;;;;2.70;2.30;;;19.60;99.90;;;;;;4938478;29;21250;-96
2022/06/24 04:33:01;;;;;;;3.40;2.17;;;19.50;99.90;;;;;;4938402;28;22292;-95
2022/06/24 04:35:28;;;;;;;3.80;2.00;;;19.40;99.90;;;;;;4940457;28;20649;-96
2022/06/24 04:37:55;;;;;;;3.33;2.17;;;19.40;99.90;;;;;;4937639;28;20643;-96
2022/06/24 04:40:23;;;;;;;10.47;2.63;;;19.50;99.90;;;;;;4935619;29;21012;-96
2022/06/24 04:42:52;;;;;;;1.90;1.47;;;19.70;99.90;;;;;;4935314;29;20640;-96
2022/06/24 04:45:19;;;;;;;4.60;2.63;;;20.10;99.90;;;;;;4944499;28;20634;-95
2022/06/24 04:47:46;;;;;;;5.07;2.70;;;20.20;99.90;;;;;;4935322;28;20690;-95
2022/06/24 04:50:13;;;;;;;2.60;1.70;;;20.10;99.90;;;;;;4938277;28;20753;-96
2022/06/24 04:52:42;;;;;;;4.60;2.17;;;19.90;99.90;;;;;;4942631;28;20645;-96
2022/06/24 04:55:09;;;;;;;3.37;2.00;;;20.20;99.90;;;;;;4943594;28;20727;-96
2022/06/24 04:57:38;;;;;;;4.50;2.20;;;20.40;99.90;;;;;;4942693;28;20686;-96
2022/06/24 05:00:10;;;;;;;4.37;2.40;;;20.40;99.90;;;;;;4941208;28;20663;-95
2022/06/24 05:02:37;;;;;;;6.33;2.50;;;20.20;99.90;;;;;;4938414;28;20710;-95
2022/06/24 05:05:06;;;;;;;2.83;1.63;;;20.00;99.90;;;;;;4943264;28;20634;-96
2022/06/24 05:07:33;;;;;;;3.17;1.70;;;20.30;99.90;;;;;;4954311;29;21034;-95
2022/06/24 05:10:00;;;;;;;2.43;1.60;;;20.10;99.90;;;;;;4948902;28;20679;-94
2022/06/24 05:12:27;;;;;;;2.83;1.70;;;20.50;99.90;;;;;;4948066;28;21234;-96
2022/06/24 05:15:04;;;;;;;4.07;2.50;;;20.60;99.90;;;;;;4950989;28;20667;-96
2022/06/24 05:17:33;;;;;;;2.80;2.20;;;20.70;99.90;;;;;;4966781;28;20627;-96
2022/06/24 05:20:01;;;;;;;3.67;2.27;;;21.00;99.90;;;;;;4955539;28;20746;-96
2022/06/24 05:22:29;;;;;;;4.50;3.00;;;21.10;99.90;;;;;;4948399;29;20620;-96
2022/06/24 05:24:56;;;;;;;4.07;2.07;;;20.90;99.90;;;;;;4950621;28;20658;-96
2022/06/24 05:27:23;;;;;;;3.80;2.00;;;20.70;99.90;;;;;;4948748;28;20659;-96
2022/06/24 05:29:53;;;;;;;6.63;2.53;;;20.60;99.90;;;;;;4948673;29;20662;-96
2022/06/24 05:32:21;;;;;;;6.00;2.40;;;20.30;99.90;;;;;;4947125;28;20634;-96
2022/06/24 05:34:50;;;;;;;6.40;2.70;;;20.10;99.90;;;;;;4931927;29;20768;-96
2022/06/24 05:37:20;;;;;;;3.40;1.90;;;20.30;99.90;;;;;;4939530;28;20635;-96
2022/06/24 05:48:12;;;;;;;5.60;2.50;;;20.70;99.90;;;;;;4933126;29;20642;-96
2022/06/24 05:50:43;;;;;;;4.50;2.57;;;21.00;99.90;;;;;;4941991;28;20690;-96
2022/06/24 05:58:44;;;;;;;4.47;2.60;;;20.90;99.90;;;;;;4953922;28;20702;-96
2022/06/24 06:01:16;;;;;;;6.53;3.37;;;21.30;99.90;;;;;;4964736;28;20635;-96
2022/06/24 06:04:12;;;;;;;5.70;2.50;;;21.20;99.90;;;;;;4952501;28;20620;-96
2022/06/24 06:06:42;;;;;;;5.07;2.47;;;21.20;99.90;;;;;;4952901;29;20667;-96
2022/06/24 06:09:42;;;;;;;4.50;2.43;;;21.10;99.90;;;;;;4958565;29;20651;-96
2022/06/24 06:12:09;;;;;;;3.83;2.10;;;21.20;99.90;;;;;;4959435;28;20710;-95
2022/06/24 06:14:36;;;;;;;6.70;2.80;;;21.10;99.90;;;;;;4968635;28;20638;-96
2022/06/24 06:17:04;;;;;;;5.00;2.30;;;21.40;99.90;;;;;;4957533;29;20635;-95
2022/06/24 06:19:33;;;;;;;7.23;2.50;;;21.60;99.90;;;;;;4951739;29;21039;-94
2022/06/24 06:22:03;;;;;;;4.20;2.00;;;21.60;99.90;;;;;;4945955;28;20638;-95
2022/06/24 06:24:30;;;;;;;5.90;2.83;;;21.60;99.90;;;;;;4941181;29;20627;-96
2022/06/24 06:26:58;;;;;;;4.60;2.00;;;22.00;99.90;;;;;;4941663;28;20640;-95
2022/06/24 06:29:25;;;;;;;4.27;1.60;;;22.00;99.90;;;;;;4947447;28;20671;-96
2022/06/24 06:31:52;;;;;;;5.30;2.80;;;22.00;99.90;;;;;;4945062;28;20734;-94
2022/06/24 06:34:23;;;;;;;3.53;2.30;;;21.70;99.90;;;;;;4941764;29;20759;-94
2022/06/24 06:36:50;;;;;;;6.83;2.77;;;21.40;99.90;;;;;;4960949;28;20631;-95
2022/06/24 06:39:18;;;;;;;4.07;2.60;;;21.20;99.90;;;;;;4952731;28;21025;-96
2022/06/24 06:41:46;;;;;;;3.57;2.40;;;21.30;99.90;;;;;;4938260;29;20641;-96
2022/06/24 06:44:15;;;;;;;5.70;2.70;;;21.50;99.90;;;;;;4934979;29;20639;-94
2022/06/24 06:46:42;;;;;;;4.70;2.07;;;21.60;99.90;;;;;;4943261;28;20636;-96
2022/06/24 06:49:09;;;;;;;2.60;1.90;;;21.90;99.90;;;;;;4939132;29;20655;-95
2022/06/24 06:51:38;;;;;;;5.70;1.90;;;22.00;99.90;;;;;;4951523;29;21253;-95
2022/06/24 06:54:05;;;;;;;7.40;3.20;;;22.30;99.90;;;;;;4938789;29;20667;-96
2022/06/24 06:56:34;;;;;;;7.67;2.20;;;22.40;99.90;;;;;;4955645;29;20647;-82
2022/06/24 06:59:01;;;;;;;7.43;2.43;;;22.30;99.90;;;;;;4931749;29;21317;-82
2022/06/24 07:01:27;;;;;;;4.30;2.50;;;22.30;99.90;;;;;;4932292;29;20642;-82
2022/06/24 07:03:54;;;;;;;3.00;2.43;;;22.40;99.90;;;;;;4932654;29;21013;-82
2022/06/24 07:06:21;;;;;;;5.23;1.93;;;22.50;99.90;;;;;;4932236;29;20638;-82
2022/06/24 07:08:48;;;;;;;7.53;2.33;;;22.60;99.90;;;;;;4931168;29;20670;-81
2022/06/24 07:11:15;;;;;;;12.17;2.63;;;22.70;99.90;;;;;;4931816;29;20627;-82
2022/06/24 07:13:43;;;;;;;3.70;1.93;;;22.80;99.90;;;;;;4932450;29;20627;-81
2022/06/24 07:16:10;;;;;;;5.00;2.40;;;22.90;99.90;;;;;;4932750;29;20630;-81
2022/06/24 07:18:37;;;;;;;4.10;2.00;;;23.00;99.90;;;;;;4928446;29;20639;-81
2022/06/24 07:21:04;;;;;;;4.33;2.27;;;23.00;99.90;;;;;;4932868;29;20625;-82
2022/06/24 07:23:31;;;;;;;5.00;2.10;;;23.00;99.90;;;;;;4932763;29;20737;-81
2022/06/24 07:25:58;;;;;;;5.90;2.23;;;23.10;99.90;;;;;;4932401;29;20634;-82
2022/06/24 07:28:26;;;;;;;3.70;2.17;;;23.00;99.90;;;;;;4932774;29;20642;-81
2022/06/24 07:30:54;;;;;;;3.60;2.20;;;23.00;99.90;;;;;;4931825;29;20662;-83
2022/06/24 07:33:22;;;;;;;6.20;2.70;;;23.20;99.90;;;;;;4931979;29;20635;-80
2022/06/24 07:35:49;;;;;;;4.00;2.03;;;23.20;99.90;;;;;;4932007;29;20725;-81
2022/06/24 07:38:16;;;;;;;4.50;1.90;;;23.30;99.90;;;;;;4929533;29;21302;-80
2022/06/24 07:40:43;;;;;;;2.10;1.83;;;23.30;99.90;;;;;;4931564;29;20658;-80
2022/06/24 07:43:09;;;;;;;3.83;1.40;;;23.40;99.90;;;;;;4932203;29;20638;-81
2022/06/24 07:45:36;;;;;;;5.33;2.70;;;23.40;99.90;;;;;;4931364;29;20649;-80
2022/06/24 07:48:05;;;;;;;3.63;1.50;;;23.50;99.90;;;;;;4932425;29;20731;-81
2022/06/24 07:50:32;;;;;;;2.10;1.90;;;23.60;99.90;;;;;;4930830;29;20662;-80
2022/06/24 07:52:59;;;;;;;5.33;2.07;;;23.70;99.90;;;;;;4932372;29;20738;-80
2022/06/24 07:58:10;;;;;;;5.10;2.53;;;23.50;99.90;;;;;;4931691;29;20655;-79
2022/06/24 08:00:37;;;;;;;3.03;2.03;;;23.70;99.90;;;;;;4927147;29;20705;-80
2022/06/24 08:03:06;;;;;;;2.60;2.20;;;23.70;99.90;;;;;;4930808;29;20614;-80
2022/06/24 08:05:33;;;;;;;2.80;2.00;;;23.80;99.90;;;;;;4931444;29;20630;-80
2022/06/24 08:07:59;;;;;;;3.57;1.80;;;23.80;99.90;;;;;;4931230;29;20631;-80
2022/06/24 08:10:26;;;;;;;4.33;1.50;;;23.70;99.90;;;;;;4930613;29;20662;-80
2022/06/24 08:12:53;;;;;;;3.17;1.60;;;23.70;99.90;;;;;;4931104;29;20647;-80
2022/06/24 08:15:20;;;;;;;3.67;1.80;;;23.80;99.90;;;;;;4930149;29;20667;-81
2022/06/24 08:17:48;;;;;;;4.50;1.90;;;23.90;99.90;;;;;;4930299;29;20638;-80
2022/06/24 08:20:17;;;;;;;5.10;1.70;;;24.00;99.90;;;;;;4930671;29;20790;-80
2022/06/24 08:22:44;;;;;;;7.10;1.53;;;24.20;99.90;;;;;;4932177;29;20631;-82
2022/06/24 08:25:12;;;;;;;2.70;1.10;;;24.30;99.90;;;;;;4932302;29;20631;-82
2022/06/24 08:27:40;;;;;;;3.47;1.47;;;24.30;99.90;;;;;;4928915;29;20626;-79
2022/06/24 08:30:08;;;;;;;2.70;1.70;;;24.30;99.90;;;;;;4929928;29;20681;-82
2022/06/24 08:32:34;;;;;;;2.97;1.77;;;24.10;99.90;;;;;;4928826;29;20707;-82
2022/06/24 08:35:01;;;;;;;3.97;1.70;;;24.10;99.90;;;;;;4930386;29;20678;-82
2022/06/24 08:37:29;;;;;;;1.63;1.13;;;24.20;99.90;;;;;;4928514;29;20642;-82
2022/06/24 08:39:57;;;;;;;1.73;1.10;;;24.20;99.90;;;;;;4931146;29;20663;-80
2022/06/24 08:42:27;;;;;;;2.93;1.20;;;24.30;99.90;;;;;;4929306;29;20706;-80
2022/06/24 08:44:54;;;;;;;2.70;1.43;;;24.30;99.90;;;;;;4930426;29;20983;-80
2022/06/24 08:47:21;;;;;;;2.40;1.67;;;24.40;99.90;;;;;;4929050;29;20635;-80
2022/06/24 08:49:49;;;;;;;1.00;1.00;;;24.40;99.90;;;;;;4930991;29;20659;-80
2022/06/24 08:52:17;;;;;;;2.50;1.33;;;24.40;99.90;;;;;;4928473;29;20654;-79
2022/06/24 08:54:46;;;;;;;8.57;2.00;;;24.50;99.90;;;;;;4928870;29;20675;-79
2022/06/24 08:57:13;;;;;;;1.20;1.10;;;24.70;99.90;;;;;;4929014;29;20647;-82
2022/06/24 08:59:42;;;;;;;1.30;1.03;;;24.80;99.90;;;;;;4928674;29;20663;-80
2022/06/24 09:02:13;;;;;;;1.33;0.97;;;24.90;99.90;;;;;;4929368;29;20631;-83
2022/06/24 09:04:43;;;;;;;2.13;1.77;;;25.10;99.90;;;;;;4925557;29;20627;-80
2022/06/24 09:07:18;;;;;;;5.70;1.47;;;25.10;99.90;;;;;;4930308;29;20713;-82
2022/06/24 09:09:57;;;;;;;3.10;1.60;;;25.20;99.90;;;;;;4926812;29;20662;-82
2022/06/24 09:12:24;;;;;;;3.20;1.47;;;25.30;99.90;;;;;;4928947;29;20623;-82
2022/06/24 09:14:51;;;;;;;6.90;1.80;;;25.40;99.90;;;;;;4930284;29;21504;-80
2022/06/24 09:17:18;;;;;;;2.10;1.77;;;25.40;99.90;;;;;;4929091;29;20738;-80
2022/06/24 09:19:44;;;;;;;6.33;1.67;;;25.40;99.90;;;;;;4930481;29;20651;-80
2022/06/24 09:22:12;;;;;;;1.80;1.40;;;25.50;99.90;;;;;;4928998;29;20677;-81
2022/06/24 09:24:47;;;;;;;2.30;1.23;;;25.50;99.90;;;;;;4926900;29;20627;-81
2022/06/24 09:27:15;;;;;;;2.80;1.10;;;25.60;99.90;;;;;;4929305;29;20708;-81
2022/06/24 09:29:48;;;;;;;6.07;1.60;;;25.60;99.90;;;;;;4927915;29;20659;-82
2022/06/24 09:32:15;;;;;;;1.30;1.20;;;25.70;99.90;;;;;;4928939;29;21154;-80
2022/06/24 09:35:14;;;;;;;3.03;2.60;;;25.80;97.40;;;;;;4930092;29;20643;-81
2022/06/24 09:37:42;;;;;;;1.73;1.20;;;25.80;96.60;;;;;;4929494;29;20627;-80
2022/06/24 09:40:23;;;;;;;2.10;1.10;;;25.80;96.80;;;;;;4930105;29;20669;-80
2022/06/24 09:42:56;;;;;;;2.60;1.53;;;25.90;95.90;;;;;;4928880;29;20629;-80
2022/06/24 09:45:24;;;;;;;2.27;1.40;;;26.00;96.00;;;;;;4925011;29;20632;-80
2022/06/24 09:47:52;;;;;;;1.30;1.20;;;26.00;94.80;;;;;;4930282;29;20642;-80
2022/06/24 09:50:20;;;;;;;1.17;1.00;;;26.20;95.40;;;;;;4928456;29;20673;-80
2022/06/24 09:52:49;;;;;;;1.57;1.40;;;26.30;96.60;;;;;;4930419;29;20642;-80
2022/06/24 09:55:17;;;;;;;2.30;1.20;;;26.50;97.00;;;;;;4929344;29;20678;-82
2022/06/24 09:57:44;;;;;;;2.73;1.73;;;26.50;94.30;;;;;;4931123;29;20631;-79
2022/06/24 10:03:01;;;;;;;1.90;1.50;;;26.40;93.60;;;;;;4930029;29;20627;-82
2022/06/24 10:05:32;;;;;;;3.00;1.30;;;26.40;92.20;;;;;;4929052;29;20658;-82
2022/06/24 10:08:01;;;;;;;1.30;1.10;;;26.40;92.20;;;;;;4929968;29;20642;-80
2022/06/24 10:10:29;;;;;;;1.57;1.27;;;26.40;91.80;;;;;;4928239;29;20699;-80
2022/06/24 10:13:05;;;;;;;3.97;1.60;;;26.50;91.90;;;;;;4929138;29;20634;-81
2022/06/24 10:15:34;;;;;;;1.83;1.57;;;26.60;92.30;;;;;;4929438;29;21208;-82
2022/06/24 10:18:01;;;;;;;3.10;1.40;;;26.70;92.50;;;;;;4929053;29;20642;-80
2022/06/24 10:20:28;;;;;;;4.27;1.80;;;26.80;93.20;;;;;;4929685;29;21024;-80
2022/06/24 10:22:57;;;;;;;3.70;1.40;;;27.10;92.10;;;;;;4928305;29;20654;-80
2022/06/24 10:25:51;;;;;;;2.13;1.30;;;27.10;90.80;;;;;;4928753;29;20637;-79
2022/06/24 10:28:18;;;;;;;3.40;2.10;;;27.40;91.10;;;;;;4930193;29;20616;-81
2022/06/24 10:30:58;;;;;;;3.43;1.43;;;27.50;91.00;;;;;;4928918;29;20655;-82
2022/06/24 10:33:29;;;;;;;2.07;1.30;;;27.70;90.20;;;;;;4927587;29;20657;-81
2022/06/24 10:36:00;;;;;;;2.97;1.83;;;27.90;91.00;;;;;;4928984;29;20719;-81
2022/06/24 10:38:35;;;;;;;3.60;1.93;;;27.90;88.00;;;;;;4929247;29;20750;-81
2022/06/24 10:41:03;;;;;;;1.83;1.57;;;27.70;90.00;;;;;;4928339;29;20642;-81
2022/06/24 10:43:35;;;;;;;1.80;1.53;;;27.80;90.80;;;;;;4929314;29;20632;-80
2022/06/24 10:46:20;;;;;;;3.37;1.60;;;28.00;91.40;;;;;;4928706;29;20641;-81
2022/06/24 10:49:01;;;;;;;1.80;1.47;;;28.20;90.20;;;;;;4926863;29;20643;-80
2022/06/24 10:51:32;;;;;;;5.80;1.80;;;28.20;87.00;;;;;;4927542;29;20643;-80
2022/06/24 10:54:17;;;;;;;4.00;1.70;;;28.20;89.30;;;;;;4929774;29;20639;-81
2022/06/24 10:56:48;;;;;;;4.57;1.43;;;28.20;89.10;;;;;;4929042;29;20666;-81
2022/06/24 10:59:17;;;;;;;3.50;1.90;;;28.30;87.10;;;;;;4931190;29;21241;-80
2022/06/24 11:01:47;;;;;;;3.10;1.93;;;28.30;84.30;;;;;;4931477;29;20653;-81
2022/06/24 11:04:16;;;;;;;1.93;1.73;;;28.20;84.60;;;;;;4932784;29;20643;-80
2022/06/24 11:07:12;;;;;;;3.00;1.50;;;28.10;84.60;;;;;;4932787;29;20623;-81
2022/06/24 11:09:39;;;;;;;2.87;1.57;;;28.10;84.70;;;;;;4927955;29;20670;-80
2022/06/24 11:12:07;;;;;;;1.70;1.50;;;27.90;84.70;;;;;;4932573;29;21541;-80
2022/06/24 11:14:34;;;;;;;3.17;1.40;;;27.80;84.50;;;;;;4932599;29;20654;-80
2022/06/24 11:17:09;;;;;;;1.80;1.70;;;27.70;86.20;;;;;;4932631;29;20681;-80
2022/06/24 11:19:41;;;;;;;4.37;1.83;;;27.50;87.80;;;;;;4932355;29;20665;-80
2022/06/24 11:22:08;;;;;;;3.53;1.90;;;27.60;91.00;;;;;;4932793;29;20697;-80
2022/06/24 11:24:37;;;;;;;1.93;1.70;;;27.70;94.00;;;;;;4932861;29;20627;-80
2022/06/24 11:27:06;;;;;;;4.00;2.20;;;27.80;95.50;;;;;;4932320;29;20994;-80
2022/06/24 11:29:53;;;;;;;3.50;2.37;;;27.90;97.20;;;;;;4932481;29;20673;-80
2022/06/24 11:32:21;;;;;;;4.40;2.47;;;28.00;96.30;;;;;;4929880;29;20631;-80
2022/06/24 11:34:49;;;;;;;4.70;2.03;;;28.10;95.90;;;;;;4931496;29;20627;-81
2022/06/24 11:37:22;;;;;;;5.40;2.10;;;28.30;95.60;;;;;;4930248;29;20674;-81
2022/06/24 11:39:53;;;;;;;4.90;2.27;;;28.40;94.70;;;;;;4932461;29;20695;-81
2022/06/24 11:42:20;;;;;;;3.40;2.30;;;28.40;93.40;;;;;;4928851;29;20631;-80
2022/06/24 11:44:49;;;;;;;4.20;2.20;;;28.20;93.60;;;;;;4932397;29;20627;-80
2022/06/24 11:47:16;;;;;;;2.20;2.00;;;28.10;95.10;;;;;;4930324;29;20997;-80
2022/06/24 11:49:50;;;;;;;3.37;1.73;;;28.10;95.70;;;;;;4931356;29;20721;-81
2022/06/24 11:52:17;;;;;;;2.20;1.63;;;28.00;94.90;;;;;;4930223;29;20615;-81
2022/06/24 11:54:44;;;;;;;5.80;1.87;;;28.00;94.70;;;;;;4930737;29;20671;-80
2022/06/24 11:57:12;;;;;;;2.57;2.20;;;28.00;95.80;;;;;;4930619;29;20677;-81
2022/06/24 11:59:39;;;;;;;3.17;2.17;;;28.00;96.40;;;;;;4929212;29;20655;-80
2022/06/24 12:02:11;;;;;;;4.43;2.13;;;28.00;97.30;;;;;;4931924;29;20746;-80
2022/06/24 12:04:38;;;;;;;2.53;1.90;;;28.00;97.70;;;;;;4929063;29;20635;-80
2022/06/24 12:07:08;;;;;;;5.50;2.00;;;28.00;97.90;;;;;;4932443;29;21013;-81
2022/06/24 12:09:36;;;;;;;2.67;2.47;;;27.90;96.20;;;;;;4931601;29;20662;-80
2022/06/24 12:12:10;;;;;;;5.10;2.30;;;27.70;97.10;;;;;;4929745;29;21202;-81
2022/06/24 12:14:39;;;;;;;2.70;2.27;;;27.60;97.70;;;;;;4931205;29;20642;-80
2022/06/24 12:17:07;;;;;;;5.73;2.20;;;27.50;99.10;;;;;;4931704;29;20683;-80
2022/06/24 12:19:37;;;;;;;3.77;2.20;;;27.30;99.90;;;;;;4931422;29;20670;-80
2022/06/24 12:22:08;;;;;;;4.33;2.10;;;27.10;99.90;;;;;;4928961;29;20616;-80
2022/06/24 12:24:36;;;;;;;4.80;2.20;;;27.00;99.90;;;;;;4931135;29;20631;-80
2022/06/24 12:27:04;;;;;;;3.27;2.50;;;26.80;99.90;;;;;;4930755;29;20665;-80
2022/06/24 12:29:33;;;;;;;6.80;2.07;;;26.50;99.90;;;;;;4929081;29;20745;-81
2022/06/24 12:32:00;;;;;;;3.03;1.73;;;26.20;99.90;;;;;;4929801;29;20682;-80
2022/06/24 12:34:27;;;;;;;4.40;2.27;;;26.00;99.90;;;;;;4931403;29;20730;-81
2022/06/24 12:36:59;;;;;;;8.23;3.30;;;25.80;99.90;;;;;;4930847;29;20694;-80
2022/06/24 12:39:33;;;;;;;6.77;3.13;;;25.70;99.90;;;;;;4927655;29;20615;-82
2022/06/24 12:42:02;;;;;;;2.97;1.87;;;25.40;99.90;;;;;;4930509;29;20674;-82
2022/06/24 12:44:40;;;;;;;2.70;1.77;;;24.90;99.90;;;;;;4938696;29;20637;-82
2022/06/24 12:52:40;;;;;;;2.67;1.83;;;24.20;99.90;;;;;;4928346;29;21030;-81
2022/06/24 12:55:14;;;;;;;3.00;1.60;;;24.00;99.90;;;;;;4929465;29;20638;-81
2022/06/24 12:57:42;;;;;;;3.70;1.93;;;23.80;99.90;;;;;;4926412;29;20679;-81
2022/06/24 13:00:12;;;;;;;2.83;1.40;;;23.60;99.90;;;;;;4929254;29;20733;-81
2022/06/24 13:02:43;;;;;;;3.13;2.30;;;23.40;99.90;;;;;;4927520;29;20777;-81
2022/06/24 13:05:11;;;;;;;3.80;1.70;;;23.30;99.90;;;;;;4930618;29;21000;-81
2022/06/24 13:07:38;;;;;;;3.00;1.40;;;23.30;99.90;;;;;;4926105;29;21039;-81
2022/06/24 13:10:06;;;;;;;2.10;1.90;;;23.10;99.90;;;;;;4929032;29;20760;-81
2022/06/24 13:12:36;;;;;;;5.60;1.77;;;23.10;99.90;;;;;;4930342;29;20632;-83
2022/06/24 13:15:13;;;;;;;6.50;2.23;;;22.90;99.90;;;;;;4925621;29;20766;-82
2022/06/24 13:17:41;;;;;;;2.07;1.97;;;22.80;99.90;;;;;;4924597;29;20693;-82
2022/06/24 13:20:11;;;;;;;2.67;1.60;;;22.70;99.90;;;;;;4930923;29;21208;-81
2022/06/24 13:22:38;;;;;;;5.03;1.80;;;22.80;99.90;;;;;;4927682;29;20778;-82
2022/06/24 13:25:06;;;;;;;4.60;1.50;;;22.80;99.90;;;;;;4928070;29;20623;-81
2022/06/24 13:27:32;;;;;;;5.03;1.80;;;22.70;99.90;;;;;;4929989;29;21324;-81
2022/06/24 13:30:02;;;;;;;2.63;2.03;;;22.70;99.90;;;;;;4929278;29;20647;-81
2022/06/24 13:32:29;;;;;;;3.20;1.97;;;22.60;99.90;;;;;;4929501;29;20623;-82
2022/06/24 13:34:56;;;;;;;4.23;1.53;;;22.50;99.90;;;;;;4930164;29;20619;-81
2022/06/24 13:37:24;;;;;;;1.63;1.50;;;22.40;99.90;;;;;;4928000;29;21295;-82
2022/06/24 13:39:52;;;;;;;3.27;1.80;;;22.10;99.90;;;;;;4929311;29;20638;-82
2022/06/24 13:42:19;;;;;;;2.27;1.60;;;22.00;99.90;;;;;;4927518;29;20629;-82
2022/06/24 13:44:46;;;;;;;2.40;2.00;;;21.90;99.90;;;;;;4929122;29;20623;-81
2022/06/24 13:47:14;;;;;;;1.97;1.73;;;21.80;99.90;;;;;;4928874;29;20658;-82
2022/06/24 13:49:44;;;;;;;3.30;2.17;;;21.60;99.90;;;;;;4929168;29;20631;-82
2022/06/24 13:52:11;;;;;;;3.60;2.10;;;21.50;99.90;;;;;;4928336;29;20622;-81
2022/06/24 13:54:38;;;;;;;3.67;2.70;;;21.30;99.90;;;;;;4925896;29;20772;-81
2022/06/24 13:57:05;;;;;;;4.60;2.27;;;21.20;99.90;;;;;;4928355;29;20701;-81
2022/06/24 13:59:34;;;;;;;3.03;2.73;;;21.40;99.90;;;;;;4928851;29;20639;-81
2022/06/24 14:02:01;;;;;;;4.10;2.30;;;21.40;99.90;;;;;;4927608;29;20626;-81
2022/06/24 14:04:29;;;;;;;4.80;2.20;;;21.40;99.90;;;;;;4928090;29;20637;-81
2022/06/24 14:06:56;;;;;;;4.30;2.53;;;21.40;99.90;;;;;;4927034;29;20743;-81
2022/06/24 14:09:23;;;;;;;3.23;2.00;;;21.30;99.90;;;;;;4928909;29;20739;-82
2022/06/24 14:11:50;;;;;;;5.17;2.57;;;21.10;99.90;;;;;;4928813;29;20727;-82
2022/06/24 14:14:17;;;;;;;6.00;2.37;;;21.10;99.90;;;;;;4928961;29;21551;-82
2022/06/24 14:16:44;;;;;;;3.83;2.53;;;21.00;99.90;;;;;;4928843;29;20686;-82
2022/06/24 14:19:11;;;;;;;5.83;2.90;;;21.00;99.90;;;;;;4929668;29;20643;-81
2022/06/24 14:21:39;;;;;;;8.00;2.57;;;20.90;99.90;;;;;;4928561;29;21003;-82